sensor_id;sensor_type;location;lat;lon;timestamp;P1;durP1;ratioP1;P2;durP2;ratioP2
4138;SDS011;2083;51.034;6.996;2022-09-13T00:01:16;5.43;;;4.80;;
4138;SDS011;2083;51.034;6.996;2022-09-13T00:03:42;5.67;;;5.37;;
4138;SDS011;2083;51.034;6.996;2022-09-13T00:06:09;6.33;;;5.20;;
4138;SDS011;2083;51.034;6.996;2022-09-13T00:08:35;5.20;;;4.80;;
4138;SDS011;2083;51.034;6.996;2022-09-13T00:11:01;5.50;;;5.10;;
4138;SDS011;2083;51.034;6.996;2022-09-13T00:13:28;5.73;;;5.13;;
4138;SDS011;2083;51.034;6.996;2022-09-13T00:15:54;5.27;;;5.00;;
4138;SDS011;2083;51.034;6.996;2022-09-13T00:18:20;5.23;;;4.80;;
4138;SDS011;2083;51.034;6.996;2022-09-13T00:20:46;6.37;;;5.73;;
4138;SDS011;2083;51.034;6.996;2022-09-13T00:23:12;11.00;;;4.90;;
4138;SDS011;2083;51.034;6.996;2022-09-13T00:25:38;4.80;;;4.50;;
4138;SDS011;2083;51.034;6.996;2022-09-13T00:28:04;7.40;;;5.30;;
4138;SDS011;2083;51.034;6.996;2022-09-13T00:30:31;5.37;;;4.97;;
4138;SDS011;2083;51.034;6.996;2022-09-13T00:32:57;5.70;;;5.03;;
4138;SDS011;2083;51.034;6.996;2022-09-13T00:35:23;6.30;;;5.90;;
4138;SDS011;2083;51.034;6.996;2022-09-13T00:37:49;5.40;;;5.10;;
4138;SDS011;2083;51.034;6.996;2022-09-13T00:40:15;4.63;;;4.33;;
4138;SDS011;2083;51.034;6.996;2022-09-13T00:42:41;5.10;;;4.80;;
4138;SDS011;2083;51.034;6.996;2022-09-13T00:52:31;7.53;;;5.07;;
4138;SDS011;2083;51.034;6.996;2022-09-13T00:55:00;4.87;;;4.57;;
4138;SDS011;2083;51.034;6.996;2022-09-13T00:57:27;4.67;;;4.27;;
4138;SDS011;2083;51.034;6.996;2022-09-13T00:59:56;5.17;;;4.90;;
4138;SDS011;2083;51.034;6.996;2022-09-13T01:02:24;4.87;;;4.60;;
4138;SDS011;2083;51.034;6.996;2022-09-13T01:04:50;6.07;;;5.50;;
4138;SDS011;2083;51.034;6.996;2022-09-13T01:07:16;5.47;;;5.17;;
4138;SDS011;2083;51.034;6.996;2022-09-13T01:09:43;5.50;;;5.10;;
4138;SDS011;2083;51.034;6.996;2022-09-13T01:12:16;6.30;;;5.77;;
4138;SDS011;2083;51.034;6.996;2022-09-13T01:14:44;11.10;;;5.23;;
4138;SDS011;2083;51.034;6.996;2022-09-13T01:17:11;4.80;;;4.50;;
4138;SDS011;2083;51.034;6.996;2022-09-13T01:19:37;6.10;;;5.70;;
4138;SDS011;2083;51.034;6.996;2022-09-13T01:22:21;5.20;;;4.90;;
4138;SDS011;2083;51.034;6.996;2022-09-13T01:27:31;4.90;;;4.50;;
4138;SDS011;2083;51.034;6.996;2022-09-13T01:32:38;9.50;;;5.50;;
4138;SDS011;2083;51.034;6.996;2022-09-13T01:42:30;7.50;;;5.67;;
4138;SDS011;2083;51.034;6.996;2022-09-13T01:47:30;5.83;;;5.43;;
4138;SDS011;2083;51.034;6.996;2022-09-13T01:52:28;5.10;;;4.80;;
4138;SDS011;2083;51.034;6.996;2022-09-13T02:00:11;5.67;;;5.17;;
4138;SDS011;2083;51.034;6.996;2022-09-13T02:02:40;6.10;;;5.50;;
4138;SDS011;2083;51.034;6.996;2022-09-13T02:05:18;5.80;;;5.30;;
4138;SDS011;2083;51.034;6.996;2022-09-13T02:07:49;5.57;;;5.23;;
4138;SDS011;2083;51.034;6.996;2022-09-13T02:10:25;6.47;;;5.83;;
4138;SDS011;2083;51.034;6.996;2022-09-13T02:12:53;5.47;;;5.10;;
4138;SDS011;2083;51.034;6.996;2022-09-13T02:15:22;6.00;;;5.30;;
4138;SDS011;2083;51.034;6.996;2022-09-13T02:17:49;6.37;;;5.77;;
4138;SDS011;2083;51.034;6.996;2022-09-13T02:20:29;4.80;;;4.60;;
4138;SDS011;2083;51.034;6.996;2022-09-13T02:22:57;5.60;;;5.20;;
4138;SDS011;2083;51.034;6.996;2022-09-13T02:25:24;6.10;;;5.70;;
4138;SDS011;2083;51.034;6.996;2022-09-13T02:27:51;6.43;;;5.80;;
4138;SDS011;2083;51.034;6.996;2022-09-13T02:30:18;4.57;;;4.37;;
4138;SDS011;2083;51.034;6.996;2022-09-13T02:32:48;6.27;;;5.67;;
4138;SDS011;2083;51.034;6.996;2022-09-13T02:35:21;6.07;;;5.70;;
4138;SDS011;2083;51.034;6.996;2022-09-13T02:37:49;5.67;;;5.20;;
4138;SDS011;2083;51.034;6.996;2022-09-13T02:40:17;5.43;;;4.93;;
4138;SDS011;2083;51.034;6.996;2022-09-13T02:42:49;6.23;;;5.20;;
4138;SDS011;2083;51.034;6.996;2022-09-13T02:45:17;7.93;;;5.70;;
4138;SDS011;2083;51.034;6.996;2022-09-13T02:47:50;10.30;;;6.73;;
4138;SDS011;2083;51.034;6.996;2022-09-13T02:50:20;6.50;;;5.50;;
4138;SDS011;2083;51.034;6.996;2022-09-13T02:52:50;5.73;;;5.30;;
4138;SDS011;2083;51.034;6.996;2022-09-13T02:55:22;5.77;;;5.37;;
4138;SDS011;2083;51.034;6.996;2022-09-13T03:00:15;5.80;;;5.20;;
4138;SDS011;2083;51.034;6.996;2022-09-13T03:02:41;12.57;;;5.03;;
4138;SDS011;2083;51.034;6.996;2022-09-13T03:05:08;5.27;;;4.87;;
4138;SDS011;2083;51.034;6.996;2022-09-13T03:07:35;6.03;;;5.57;;
4138;SDS011;2083;51.034;6.996;2022-09-13T03:10:03;6.63;;;6.03;;
4138;SDS011;2083;51.034;6.996;2022-09-13T03:20:36;5.43;;;4.87;;
4138;SDS011;2083;51.034;6.996;2022-09-13T03:23:12;5.27;;;4.97;;
4138;SDS011;2083;51.034;6.996;2022-09-13T03:28:20;8.73;;;5.30;;
4138;SDS011;2083;51.034;6.996;2022-09-13T03:30:48;5.77;;;5.37;;
4138;SDS011;2083;51.034;6.996;2022-09-13T03:33:28;5.70;;;5.30;;
4138;SDS011;2083;51.034;6.996;2022-09-13T03:35:56;11.27;;;7.33;;
4138;SDS011;2083;51.034;6.996;2022-09-13T03:38:30;6.30;;;5.97;;
4138;SDS011;2083;51.034;6.996;2022-09-13T03:46:03;5.13;;;4.83;;
4138;SDS011;2083;51.034;6.996;2022-09-13T03:48:30;5.50;;;5.10;;
4138;SDS011;2083;51.034;6.996;2022-09-13T03:50:57;5.30;;;4.90;;
4138;SDS011;2083;51.034;6.996;2022-09-13T03:53:24;5.30;;;4.90;;
4138;SDS011;2083;51.034;6.996;2022-09-13T03:55:50;5.10;;;4.80;;
4138;SDS011;2083;51.034;6.996;2022-09-13T03:58:17;5.80;;;5.30;;
4138;SDS011;2083;51.034;6.996;2022-09-13T04:00:43;5.70;;;5.17;;
4138;SDS011;2083;51.034;6.996;2022-09-13T04:03:10;6.03;;;5.40;;
4138;SDS011;2083;51.034;6.996;2022-09-13T04:05:36;9.50;;;5.83;;
4138;SDS011;2083;51.034;6.996;2022-09-13T04:08:03;5.70;;;5.17;;
4138;SDS011;2083;51.034;6.996;2022-09-13T04:10:30;5.17;;;4.87;;
4138;SDS011;2083;51.034;6.996;2022-09-13T04:12:56;11.13;;;5.60;;
4138;SDS011;2083;51.034;6.996;2022-09-13T04:15:23;5.33;;;5.10;;
4138;SDS011;2083;51.034;6.996;2022-09-13T04:17:49;6.37;;;5.83;;
4138;SDS011;2083;51.034;6.996;2022-09-13T04:20:15;5.60;;;5.20;;
4138;SDS011;2083;51.034;6.996;2022-09-13T04:22:41;7.10;;;5.20;;
4138;SDS011;2083;51.034;6.996;2022-09-13T04:25:08;5.50;;;5.13;;
4138;SDS011;2083;51.034;6.996;2022-09-13T04:27:34;5.80;;;5.40;;
4138;SDS011;2083;51.034;6.996;2022-09-13T04:30:00;5.87;;;5.37;;
4138;SDS011;2083;51.034;6.996;2022-09-13T04:32:26;4.93;;;4.73;;
4138;SDS011;2083;51.034;6.996;2022-09-13T04:34:53;5.20;;;5.00;;
4138;SDS011;2083;51.034;6.996;2022-09-13T04:37:19;5.50;;;5.20;;
4138;SDS011;2083;51.034;6.996;2022-09-13T04:39:45;6.03;;;5.47;;
4138;SDS011;2083;51.034;6.996;2022-09-13T04:42:11;7.53;;;5.20;;
4138;SDS011;2083;51.034;6.996;2022-09-13T04:44:37;5.23;;;4.83;;
4138;SDS011;2083;51.034;6.996;2022-09-13T04:47:03;5.87;;;5.47;;
4138;SDS011;2083;51.034;6.996;2022-09-13T04:49:31;5.33;;;4.93;;
4138;SDS011;2083;51.034;6.996;2022-09-13T04:51:57;5.87;;;5.57;;
4138;SDS011;2083;51.034;6.996;2022-09-13T04:54:23;5.40;;;4.93;;
4138;SDS011;2083;51.034;6.996;2022-09-13T04:56:50;8.00;;;5.40;;
4138;SDS011;2083;51.034;6.996;2022-09-13T04:59:16;5.50;;;5.10;;
4138;SDS011;2083;51.034;6.996;2022-09-13T05:01:42;6.17;;;5.67;;
4138;SDS011;2083;51.034;6.996;2022-09-13T05:04:08;5.03;;;4.67;;
4138;SDS011;2083;51.034;6.996;2022-09-13T05:06:35;5.07;;;4.77;;
4138;SDS011;2083;51.034;6.996;2022-09-13T05:09:01;5.37;;;4.97;;
4138;SDS011;2083;51.034;6.996;2022-09-13T05:11:27;5.00;;;4.70;;
4138;SDS011;2083;51.034;6.996;2022-09-13T05:13:55;5.40;;;4.90;;
4138;SDS011;2083;51.034;6.996;2022-09-13T05:16:25;5.03;;;4.73;;
4138;SDS011;2083;51.034;6.996;2022-09-13T05:18:52;5.40;;;5.10;;
4138;SDS011;2083;51.034;6.996;2022-09-13T05:21:18;5.60;;;5.20;;
4138;SDS011;2083;51.034;6.996;2022-09-13T05:23:44;5.37;;;4.97;;
4138;SDS011;2083;51.034;6.996;2022-09-13T05:26:10;5.80;;;5.30;;
4138;SDS011;2083;51.034;6.996;2022-09-13T05:28:36;5.60;;;5.30;;
4138;SDS011;2083;51.034;6.996;2022-09-13T05:31:03;8.00;;;5.10;;
4138;SDS011;2083;51.034;6.996;2022-09-13T05:33:30;5.53;;;5.13;;
4138;SDS011;2083;51.034;6.996;2022-09-13T05:35:57;5.17;;;4.93;;
4138;SDS011;2083;51.034;6.996;2022-09-13T05:38:23;8.00;;;5.50;;
4138;SDS011;2083;51.034;6.996;2022-09-13T05:40:58;5.23;;;4.87;;
4138;SDS011;2083;51.034;6.996;2022-09-13T05:43:25;8.20;;;4.90;;
4138;SDS011;2083;51.034;6.996;2022-09-13T05:45:58;5.03;;;4.83;;
4138;SDS011;2083;51.034;6.996;2022-09-13T05:48:25;5.33;;;5.00;;
4138;SDS011;2083;51.034;6.996;2022-09-13T05:50:50;4.90;;;4.60;;
4138;SDS011;2083;51.034;6.996;2022-09-13T05:53:16;5.80;;;5.33;;
4138;SDS011;2083;51.034;6.996;2022-09-13T05:55:42;4.97;;;4.77;;
4138;SDS011;2083;51.034;6.996;2022-09-13T05:58:09;8.60;;;5.30;;
4138;SDS011;2083;51.034;6.996;2022-09-13T06:00:35;7.83;;;5.40;;
4138;SDS011;2083;51.034;6.996;2022-09-13T06:03:01;7.90;;;5.87;;
4138;SDS011;2083;51.034;6.996;2022-09-13T06:05:31;7.90;;;5.00;;
4138;SDS011;2083;51.034;6.996;2022-09-13T06:07:58;4.90;;;4.50;;
4138;SDS011;2083;51.034;6.996;2022-09-13T06:10:24;4.80;;;4.50;;
4138;SDS011;2083;51.034;6.996;2022-09-13T06:12:50;7.83;;;5.00;;
4138;SDS011;2083;51.034;6.996;2022-09-13T06:15:16;5.00;;;4.50;;
4138;SDS011;2083;51.034;6.996;2022-09-13T06:17:42;5.17;;;4.80;;
4138;SDS011;2083;51.034;6.996;2022-09-13T06:20:08;5.43;;;4.93;;
4138;SDS011;2083;51.034;6.996;2022-09-13T06:22:34;6.67;;;5.40;;
4138;SDS011;2083;51.034;6.996;2022-09-13T06:25:00;4.90;;;4.60;;
4138;SDS011;2083;51.034;6.996;2022-09-13T06:27:28;5.13;;;4.73;;
4138;SDS011;2083;51.034;6.996;2022-09-13T06:29:55;5.03;;;4.73;;
4138;SDS011;2083;51.034;6.996;2022-09-13T06:32:21;5.40;;;4.90;;
4138;SDS011;2083;51.034;6.996;2022-09-13T06:34:47;5.77;;;5.30;;
4138;SDS011;2083;51.034;6.996;2022-09-13T06:37:13;9.13;;;4.30;;
4138;SDS011;2083;51.034;6.996;2022-09-13T06:39:39;4.77;;;4.37;;
4138;SDS011;2083;51.034;6.996;2022-09-13T06:42:05;7.10;;;4.60;;
4138;SDS011;2083;51.034;6.996;2022-09-13T06:44:31;7.23;;;4.97;;
4138;SDS011;2083;51.034;6.996;2022-09-13T06:46:57;4.80;;;4.40;;
4138;SDS011;2083;51.034;6.996;2022-09-13T06:49:23;4.13;;;3.90;;
4138;SDS011;2083;51.034;6.996;2022-09-13T06:51:49;10.23;;;5.40;;
4138;SDS011;2083;51.034;6.996;2022-09-13T06:54:15;5.27;;;4.87;;
4138;SDS011;2083;51.034;6.996;2022-09-13T06:56:41;4.70;;;4.30;;
4138;SDS011;2083;51.034;6.996;2022-09-13T06:59:08;5.10;;;4.73;;
4138;SDS011;2083;51.034;6.996;2022-09-13T07:01:36;4.20;;;4.00;;
4138;SDS011;2083;51.034;6.996;2022-09-13T07:04:03;4.93;;;4.73;;
4138;SDS011;2083;51.034;6.996;2022-09-13T07:06:30;4.87;;;4.57;;
4138;SDS011;2083;51.034;6.996;2022-09-13T07:08:57;4.63;;;4.23;;
4138;SDS011;2083;51.034;6.996;2022-09-13T07:11:24;5.33;;;4.87;;
4138;SDS011;2083;51.034;6.996;2022-09-13T07:13:52;4.77;;;4.43;;
4138;SDS011;2083;51.034;6.996;2022-09-13T07:16:18;5.50;;;4.50;;
4138;SDS011;2083;51.034;6.996;2022-09-13T07:18:49;5.27;;;4.87;;
4138;SDS011;2083;51.034;6.996;2022-09-13T07:21:15;4.87;;;4.47;;
4138;SDS011;2083;51.034;6.996;2022-09-13T07:23:42;4.77;;;4.33;;
4138;SDS011;2083;51.034;6.996;2022-09-13T07:26:08;5.53;;;4.70;;
4138;SDS011;2083;51.034;6.996;2022-09-13T07:28:38;4.40;;;4.10;;
4138;SDS011;2083;51.034;6.996;2022-09-13T07:33:30;5.47;;;4.83;;
4138;SDS011;2083;51.034;6.996;2022-09-13T07:35:56;4.70;;;4.40;;
4138;SDS011;2083;51.034;6.996;2022-09-13T07:38:23;4.57;;;4.27;;
4138;SDS011;2083;51.034;6.996;2022-09-13T07:40:55;6.57;;;4.70;;
4138;SDS011;2083;51.034;6.996;2022-09-13T07:43:27;7.53;;;4.50;;
4138;SDS011;2083;51.034;6.996;2022-09-13T07:45:57;4.07;;;3.67;;
4138;SDS011;2083;51.034;6.996;2022-09-13T07:48:23;4.40;;;4.00;;
4138;SDS011;2083;51.034;6.996;2022-09-13T07:51:05;7.70;;;4.10;;
4138;SDS011;2083;51.034;6.996;2022-09-13T07:53:32;4.40;;;4.10;;
4138;SDS011;2083;51.034;6.996;2022-09-13T07:56:06;4.47;;;4.17;;
4138;SDS011;2083;51.034;6.996;2022-09-13T07:58:32;4.87;;;4.30;;
4138;SDS011;2083;51.034;6.996;2022-09-13T08:01:02;7.93;;;3.70;;
4138;SDS011;2083;51.034;6.996;2022-09-13T08:03:28;4.40;;;4.10;;
4138;SDS011;2083;51.034;6.996;2022-09-13T08:05:55;8.63;;;3.70;;
4138;SDS011;2083;51.034;6.996;2022-09-13T08:08:20;3.83;;;3.73;;
4138;SDS011;2083;51.034;6.996;2022-09-13T08:10:46;5.10;;;4.70;;
4138;SDS011;2083;51.034;6.996;2022-09-13T08:13:14;8.27;;;3.40;;
4138;SDS011;2083;51.034;6.996;2022-09-13T08:15:40;4.77;;;3.80;;
4138;SDS011;2083;51.034;6.996;2022-09-13T08:18:06;4.33;;;4.03;;
4138;SDS011;2083;51.034;6.996;2022-09-13T08:20:36;4.10;;;3.90;;
4138;SDS011;2083;51.034;6.996;2022-09-13T08:23:02;4.47;;;4.07;;
4138;SDS011;2083;51.034;6.996;2022-09-13T08:25:31;3.47;;;3.10;;
4138;SDS011;2083;51.034;6.996;2022-09-13T08:27:58;6.50;;;3.93;;
4138;SDS011;2083;51.034;6.996;2022-09-13T08:30:25;9.27;;;3.80;;
4138;SDS011;2083;51.034;6.996;2022-09-13T08:32:57;3.50;;;3.30;;
4138;SDS011;2083;51.034;6.996;2022-09-13T08:35:23;5.20;;;3.57;;
4138;SDS011;2083;51.034;6.996;2022-09-13T08:37:49;4.20;;;3.90;;
4138;SDS011;2083;51.034;6.996;2022-09-13T08:40:15;3.07;;;2.97;;
4138;SDS011;2083;51.034;6.996;2022-09-13T08:45:10;7.63;;;3.43;;
4138;SDS011;2083;51.034;6.996;2022-09-13T08:47:40;3.53;;;3.23;;
4138;SDS011;2083;51.034;6.996;2022-09-13T08:50:16;4.20;;;3.30;;
4138;SDS011;2083;51.034;6.996;2022-09-13T08:52:45;3.93;;;3.63;;
4138;SDS011;2083;51.034;6.996;2022-09-13T08:55:36;6.10;;;3.67;;
4138;SDS011;2083;51.034;6.996;2022-09-13T08:58:01;5.77;;;2.97;;
4138;SDS011;2083;51.034;6.996;2022-09-13T09:00:39;6.33;;;3.43;;
4138;SDS011;2083;51.034;6.996;2022-09-13T09:05:40;4.27;;;3.20;;
4138;SDS011;2083;51.034;6.996;2022-09-13T09:08:10;4.50;;;3.40;;
4138;SDS011;2083;51.034;6.996;2022-09-13T09:10:41;14.23;;;3.87;;
4138;SDS011;2083;51.034;6.996;2022-09-13T09:13:53;6.33;;;3.30;;
4138;SDS011;2083;51.034;6.996;2022-09-13T09:16:00;4.37;;;3.57;;
4138;SDS011;2083;51.034;6.996;2022-09-13T09:18:31;4.37;;;2.93;;
4138;SDS011;2083;51.034;6.996;2022-09-13T09:20:58;6.50;;;3.10;;
4138;SDS011;2083;51.034;6.996;2022-09-13T09:23:27;3.57;;;3.27;;
4138;SDS011;2083;51.034;6.996;2022-09-13T09:26:16;3.27;;;3.07;;
4138;SDS011;2083;51.034;6.996;2022-09-13T09:29:00;3.60;;;3.30;;
4138;SDS011;2083;51.034;6.996;2022-09-13T09:39:15;2.60;;;2.40;;
4138;SDS011;2083;51.034;6.996;2022-09-13T09:41:42;4.10;;;3.10;;
4138;SDS011;2083;51.034;6.996;2022-09-13T09:47:43;7.20;;;2.80;;
4138;SDS011;2083;51.034;6.996;2022-09-13T09:50:09;3.80;;;2.60;;
4138;SDS011;2083;51.034;6.996;2022-09-13T10:00:16;4.83;;;2.50;;
4138;SDS011;2083;51.034;6.996;2022-09-13T10:02:42;4.67;;;2.23;;
4138;SDS011;2083;51.034;6.996;2022-09-13T10:05:11;3.50;;;3.20;;
4138;SDS011;2083;51.034;6.996;2022-09-13T10:07:37;3.13;;;2.93;;
4138;SDS011;2083;51.034;6.996;2022-09-13T10:10:04;15.10;;;2.70;;
4138;SDS011;2083;51.034;6.996;2022-09-13T10:12:32;4.23;;;2.20;;
4138;SDS011;2083;51.034;6.996;2022-09-13T10:15:19;3.20;;;2.23;;
4138;SDS011;2083;51.034;6.996;2022-09-13T10:17:59;3.73;;;2.40;;
4138;SDS011;2083;51.034;6.996;2022-09-13T10:20:26;7.50;;;2.40;;
4138;SDS011;2083;51.034;6.996;2022-09-13T10:23:14;1.97;;;1.87;;
4138;SDS011;2083;51.034;6.996;2022-09-13T10:25:43;2.50;;;2.40;;
4138;SDS011;2083;51.034;6.996;2022-09-13T10:28:13;6.10;;;2.57;;
4138;SDS011;2083;51.034;6.996;2022-09-13T10:36:15;3.63;;;3.00;;
4138;SDS011;2083;51.034;6.996;2022-09-13T10:38:41;3.40;;;2.90;;
4138;SDS011;2083;51.034;6.996;2022-09-13T10:41:20;2.93;;;2.83;;
4138;SDS011;2083;51.034;6.996;2022-09-13T10:43:48;6.20;;;3.23;;
4138;SDS011;2083;51.034;6.996;2022-09-13T10:46:21;10.33;;;3.43;;
4138;SDS011;2083;51.034;6.996;2022-09-13T10:48:48;3.77;;;2.83;;
4138;SDS011;2083;51.034;6.996;2022-09-13T10:53:46;10.10;;;3.30;;
4138;SDS011;2083;51.034;6.996;2022-09-13T10:56:19;3.77;;;1.80;;
4138;SDS011;2083;51.034;6.996;2022-09-13T10:58:46;2.17;;;1.97;;
4138;SDS011;2083;51.034;6.996;2022-09-13T11:01:21;4.27;;;1.90;;
4138;SDS011;2083;51.034;6.996;2022-09-13T11:03:57;2.70;;;2.50;;
4138;SDS011;2083;51.034;6.996;2022-09-13T11:11:25;4.10;;;1.80;;
4138;SDS011;2083;51.034;6.996;2022-09-13T11:21:50;5.60;;;2.10;;
4138;SDS011;2083;51.034;6.996;2022-09-13T11:25:05;1.70;;;1.60;;
4138;SDS011;2083;51.034;6.996;2022-09-13T11:30:02;2.03;;;1.93;;
4138;SDS011;2083;51.034;6.996;2022-09-13T11:43:18;2.20;;;1.77;;
4138;SDS011;2083;51.034;6.996;2022-09-13T11:51:08;2.20;;;2.10;;
4138;SDS011;2083;51.034;6.996;2022-09-13T11:56:18;1.97;;;1.87;;
4138;SDS011;2083;51.034;6.996;2022-09-13T12:01:15;2.37;;;2.17;;
4138;SDS011;2083;51.034;6.996;2022-09-13T12:06:49;2.33;;;2.03;;
4138;SDS011;2083;51.034;6.996;2022-09-13T12:09:23;5.50;;;2.17;;
4138;SDS011;2083;51.034;6.996;2022-09-13T12:11:52;2.70;;;2.60;;
4138;SDS011;2083;51.034;6.996;2022-09-13T12:14:22;2.60;;;2.50;;
4138;SDS011;2083;51.034;6.996;2022-09-13T12:16:51;2.70;;;2.50;;
4138;SDS011;2083;51.034;6.996;2022-09-13T12:19:32;2.53;;;2.43;;
4138;SDS011;2083;51.034;6.996;2022-09-13T12:22:01;4.03;;;2.73;;
4138;SDS011;2083;51.034;6.996;2022-09-13T12:24:33;2.43;;;2.27;;
4138;SDS011;2083;51.034;6.996;2022-09-13T12:27:04;2.80;;;2.00;;
4138;SDS011;2083;51.034;6.996;2022-09-13T12:29:35;2.00;;;1.90;;
4138;SDS011;2083;51.034;6.996;2022-09-13T12:32:06;1.90;;;1.80;;
4138;SDS011;2083;51.034;6.996;2022-09-13T12:34:37;2.20;;;2.00;;
4138;SDS011;2083;51.034;6.996;2022-09-13T12:45:12;6.40;;;2.67;;
4138;SDS011;2083;51.034;6.996;2022-09-13T13:03:27;5.37;;;2.63;;
4138;SDS011;2083;51.034;6.996;2022-09-13T13:05:56;2.40;;;2.20;;
4138;SDS011;2083;51.034;6.996;2022-09-13T13:08:33;2.30;;;1.40;;
4138;SDS011;2083;51.034;6.996;2022-09-13T13:11:11;2.90;;;1.80;;
4138;SDS011;2083;51.034;6.996;2022-09-13T13:13:39;5.33;;;2.10;;
4138;SDS011;2083;51.034;6.996;2022-09-13T13:18:51;2.47;;;1.80;;
4138;SDS011;2083;51.034;6.996;2022-09-13T13:21:22;1.90;;;1.80;;
4138;SDS011;2083;51.034;6.996;2022-09-13T13:29:24;2.03;;;1.93;;
4138;SDS011;2083;51.034;6.996;2022-09-13T13:36:56;7.87;;;2.53;;
4138;SDS011;2083;51.034;6.996;2022-09-13T13:46:50;3.33;;;1.83;;
4138;SDS011;2083;51.034;6.996;2022-09-13T13:57:19;5.60;;;1.70;;
4138;SDS011;2083;51.034;6.996;2022-09-13T13:59:46;3.83;;;2.20;;
4138;SDS011;2083;51.034;6.996;2022-09-13T14:02:14;2.90;;;2.07;;
4138;SDS011;2083;51.034;6.996;2022-09-13T14:07:41;4.43;;;2.07;;
4138;SDS011;2083;51.034;6.996;2022-09-13T14:13:01;1.93;;;1.60;;
4138;SDS011;2083;51.034;6.996;2022-09-13T14:15:37;1.93;;;1.80;;
4138;SDS011;2083;51.034;6.996;2022-09-13T14:18:19;3.27;;;2.10;;
4138;SDS011;2083;51.034;6.996;2022-09-13T14:21:16;1.43;;;1.20;;
4138;SDS011;2083;51.034;6.996;2022-09-13T14:23:42;10.17;;;1.97;;
4138;SDS011;2083;51.034;6.996;2022-09-13T14:26:08;1.60;;;1.50;;
4138;SDS011;2083;51.034;6.996;2022-09-13T14:28:36;2.20;;;1.20;;
4138;SDS011;2083;51.034;6.996;2022-09-13T14:31:02;2.17;;;1.97;;
4138;SDS011;2083;51.034;6.996;2022-09-13T14:33:29;1.87;;;1.57;;
4138;SDS011;2083;51.034;6.996;2022-09-13T14:36:00;3.53;;;1.73;;
4138;SDS011;2083;51.034;6.996;2022-09-13T14:38:27;2.80;;;1.23;;
4138;SDS011;2083;51.034;6.996;2022-09-13T14:40:58;3.47;;;1.87;;
4138;SDS011;2083;51.034;6.996;2022-09-13T14:43:26;2.30;;;1.77;;
4138;SDS011;2083;51.034;6.996;2022-09-13T14:45:54;2.80;;;1.87;;
4138;SDS011;2083;51.034;6.996;2022-09-13T14:48:26;4.30;;;2.00;;
4138;SDS011;2083;51.034;6.996;2022-09-13T14:50:58;10.53;;;2.20;;
4138;SDS011;2083;51.034;6.996;2022-09-13T14:53:26;3.93;;;2.07;;
4138;SDS011;2083;51.034;6.996;2022-09-13T14:55:57;6.00;;;2.40;;
4138;SDS011;2083;51.034;6.996;2022-09-13T14:58:25;4.40;;;2.40;;
4138;SDS011;2083;51.034;6.996;2022-09-13T15:00:57;1.87;;;1.70;;
4138;SDS011;2083;51.034;6.996;2022-09-13T15:03:24;2.30;;;1.80;;
4138;SDS011;2083;51.034;6.996;2022-09-13T15:05:51;2.50;;;1.77;;
4138;SDS011;2083;51.034;6.996;2022-09-13T15:11:03;9.30;;;2.07;;
4138;SDS011;2083;51.034;6.996;2022-09-13T15:13:30;5.00;;;1.70;;
4138;SDS011;2083;51.034;6.996;2022-09-13T15:15:56;2.47;;;2.27;;
4138;SDS011;2083;51.034;6.996;2022-09-13T15:18:29;4.67;;;2.50;;
4138;SDS011;2083;51.034;6.996;2022-09-13T15:20:56;1.80;;;1.70;;
4138;SDS011;2083;51.034;6.996;2022-09-13T15:23:24;1.40;;;1.30;;
4138;SDS011;2083;51.034;6.996;2022-09-13T15:25:53;3.53;;;1.73;;
4138;SDS011;2083;51.034;6.996;2022-09-13T15:28:21;7.07;;;1.90;;
4138;SDS011;2083;51.034;6.996;2022-09-13T15:30:48;2.60;;;1.97;;
4138;SDS011;2083;51.034;6.996;2022-09-13T15:33:18;3.20;;;1.87;;
4138;SDS011;2083;51.034;6.996;2022-09-13T15:35:45;2.67;;;1.97;;
4138;SDS011;2083;51.034;6.996;2022-09-13T15:40:44;2.60;;;1.70;;
4138;SDS011;2083;51.034;6.996;2022-09-13T15:43:10;7.17;;;1.90;;
4138;SDS011;2083;51.034;6.996;2022-09-13T15:45:37;3.33;;;1.93;;
4138;SDS011;2083;51.034;6.996;2022-09-13T15:48:04;1.77;;;1.67;;
4138;SDS011;2083;51.034;6.996;2022-09-13T15:50:31;4.03;;;1.60;;
4138;SDS011;2083;51.034;6.996;2022-09-13T15:52:57;4.87;;;2.23;;
4138;SDS011;2083;51.034;6.996;2022-09-13T15:55:24;5.57;;;2.27;;
4138;SDS011;2083;51.034;6.996;2022-09-13T15:57:50;2.60;;;2.37;;
4138;SDS011;2083;51.034;6.996;2022-09-13T16:00:18;4.73;;;1.70;;
4138;SDS011;2083;51.034;6.996;2022-09-13T16:02:44;5.83;;;2.10;;
4138;SDS011;2083;51.034;6.996;2022-09-13T16:05:10;2.40;;;2.20;;
4138;SDS011;2083;51.034;6.996;2022-09-13T16:07:36;2.33;;;1.83;;
4138;SDS011;2083;51.034;6.996;2022-09-13T16:10:03;7.57;;;2.30;;
4138;SDS011;2083;51.034;6.996;2022-09-13T16:12:32;3.90;;;2.37;;
4138;SDS011;2083;51.034;6.996;2022-09-13T16:14:58;3.60;;;2.10;;
4138;SDS011;2083;51.034;6.996;2022-09-13T16:17:25;2.13;;;2.03;;
4138;SDS011;2083;51.034;6.996;2022-09-13T16:19:52;2.83;;;2.17;;
4138;SDS011;2083;51.034;6.996;2022-09-13T16:22:18;2.93;;;2.33;;
4138;SDS011;2083;51.034;6.996;2022-09-13T16:24:45;2.13;;;1.93;;
4138;SDS011;2083;51.034;6.996;2022-09-13T16:27:11;3.47;;;2.17;;
4138;SDS011;2083;51.034;6.996;2022-09-13T16:29:37;2.50;;;2.10;;
4138;SDS011;2083;51.034;6.996;2022-09-13T16:32:03;3.10;;;2.90;;
4138;SDS011;2083;51.034;6.996;2022-09-13T16:34:30;7.27;;;2.30;;
4138;SDS011;2083;51.034;6.996;2022-09-13T16:36:56;4.73;;;2.10;;
4138;SDS011;2083;51.034;6.996;2022-09-13T16:39:22;9.30;;;2.20;;
4138;SDS011;2083;51.034;6.996;2022-09-13T16:41:48;2.43;;;2.30;;
4138;SDS011;2083;51.034;6.996;2022-09-13T16:44:14;2.47;;;2.27;;
4138;SDS011;2083;51.034;6.996;2022-09-13T16:46:40;3.33;;;2.80;;
4138;SDS011;2083;51.034;6.996;2022-09-13T16:49:06;6.53;;;2.93;;
4138;SDS011;2083;51.034;6.996;2022-09-13T16:51:33;3.27;;;2.60;;
4138;SDS011;2083;51.034;6.996;2022-09-13T16:53:59;2.53;;;2.33;;
4138;SDS011;2083;51.034;6.996;2022-09-13T16:56:25;7.57;;;2.60;;
4138;SDS011;2083;51.034;6.996;2022-09-13T16:58:51;2.60;;;2.50;;
4138;SDS011;2083;51.034;6.996;2022-09-13T17:01:19;3.03;;;2.60;;
4138;SDS011;2083;51.034;6.996;2022-09-13T17:03:46;8.60;;;2.70;;
4138;SDS011;2083;51.034;6.996;2022-09-13T17:06:13;2.73;;;2.53;;
4138;SDS011;2083;51.034;6.996;2022-09-13T17:08:40;3.10;;;2.40;;
4138;SDS011;2083;51.034;6.996;2022-09-13T17:11:07;2.80;;;2.60;;
4138;SDS011;2083;51.034;6.996;2022-09-13T17:13:33;7.57;;;3.40;;
4138;SDS011;2083;51.034;6.996;2022-09-13T17:16:00;6.50;;;2.70;;
4138;SDS011;2083;51.034;6.996;2022-09-13T17:18:26;4.40;;;2.43;;
4138;SDS011;2083;51.034;6.996;2022-09-13T17:20:51;3.93;;;2.57;;
4138;SDS011;2083;51.034;6.996;2022-09-13T17:23:18;2.73;;;2.40;;
4138;SDS011;2083;51.034;6.996;2022-09-13T17:25:47;3.13;;;2.90;;
4138;SDS011;2083;51.034;6.996;2022-09-13T17:28:14;10.83;;;3.40;;
4138;SDS011;2083;51.034;6.996;2022-09-13T17:30:41;4.60;;;3.40;;
4138;SDS011;2083;51.034;6.996;2022-09-13T17:33:07;4.40;;;4.00;;
4138;SDS011;2083;51.034;6.996;2022-09-13T17:35:33;3.33;;;3.13;;
4138;SDS011;2083;51.034;6.996;2022-09-13T17:38:00;5.03;;;3.23;;
4138;SDS011;2083;51.034;6.996;2022-09-13T17:40:27;5.50;;;3.53;;
4138;SDS011;2083;51.034;6.996;2022-09-13T17:42:53;5.13;;;3.20;;
4138;SDS011;2083;51.034;6.996;2022-09-13T17:45:19;6.10;;;3.33;;
4138;SDS011;2083;51.034;6.996;2022-09-13T17:47:46;4.30;;;3.43;;
4138;SDS011;2083;51.034;6.996;2022-09-13T17:50:12;5.60;;;3.87;;
4138;SDS011;2083;51.034;6.996;2022-09-13T17:52:38;7.63;;;4.27;;
4138;SDS011;2083;51.034;6.996;2022-09-13T17:55:04;5.40;;;3.93;;
4138;SDS011;2083;51.034;6.996;2022-09-13T17:57:31;4.10;;;3.80;;
4138;SDS011;2083;51.034;6.996;2022-09-13T17:59:57;4.83;;;4.20;;
4138;SDS011;2083;51.034;6.996;2022-09-13T18:02:24;5.50;;;4.77;;
4138;SDS011;2083;51.034;6.996;2022-09-13T18:04:51;5.23;;;4.67;;
4138;SDS011;2083;51.034;6.996;2022-09-13T18:07:18;6.13;;;4.40;;
4138;SDS011;2083;51.034;6.996;2022-09-13T18:09:44;9.60;;;5.00;;
4138;SDS011;2083;51.034;6.996;2022-09-13T18:12:11;5.50;;;5.03;;
4138;SDS011;2083;51.034;6.996;2022-09-13T18:14:37;7.50;;;4.57;;
4138;SDS011;2083;51.034;6.996;2022-09-13T18:17:03;5.90;;;5.10;;
4138;SDS011;2083;51.034;6.996;2022-09-13T18:19:36;7.50;;;6.27;;
4138;SDS011;2083;51.034;6.996;2022-09-13T18:22:02;6.27;;;5.67;;
4138;SDS011;2083;51.034;6.996;2022-09-13T18:24:28;8.80;;;6.40;;
4138;SDS011;2083;51.034;6.996;2022-09-13T18:26:54;8.83;;;5.67;;
4138;SDS011;2083;51.034;6.996;2022-09-13T18:29:20;6.87;;;6.00;;